createdAt,value
2022-10-05T00:01:55.131Z,59.70
2022-10-05T00:04:24.006Z,59.80
2022-10-05T00:06:58.082Z,59.90
2022-10-05T00:09:24.909Z,59.80
2022-10-05T00:11:51.957Z,59.80
2022-10-05T00:14:21.401Z,59.80
2022-10-05T00:16:49.298Z,59.90
2022-10-05T00:19:37.822Z,59.90
2022-10-05T00:22:18.568Z,59.80
2022-10-05T00:24:47.083Z,59.90
2022-10-05T00:27:48.228Z,60.00
2022-10-05T00:30:18.287Z,60.10
2022-10-05T00:32:45.999Z,60.20
2022-10-05T00:35:14.231Z,60.30
2022-10-05T00:37:42.057Z,60.40
2022-10-05T00:40:35.630Z,60.40
2022-10-05T00:43:08.658Z,60.00
2022-10-05T00:45:55.064Z,60.70
2022-10-05T00:48:41.034Z,60.40
2022-10-05T00:51:31.327Z,60.60
2022-10-05T00:54:04.246Z,60.20
2022-10-05T00:56:48.770Z,60.60
2022-10-05T00:59:28.054Z,60.70
2022-10-05T01:02:04.903Z,60.50
2022-10-05T01:04:49.307Z,60.60
2022-10-05T01:07:40.529Z,60.50
2022-10-05T01:10:33.811Z,60.80
2022-10-05T01:13:27.447Z,60.50
2022-10-05T01:16:36.147Z,60.30
2022-10-05T01:19:46.661Z,60.40
2022-10-05T01:22:32.121Z,60.60
2022-10-05T01:25:15.400Z,60.70
2022-10-05T01:28:14.815Z,60.70
2022-10-05T01:31:11.248Z,60.90
2022-10-05T01:33:52.313Z,60.80
2022-10-05T01:36:33.015Z,60.90
2022-10-05T01:39:06.893Z,60.80
2022-10-05T01:41:36.708Z,61.00
2022-10-05T01:44:12.225Z,60.70
2022-10-05T01:46:52.203Z,60.70
2022-10-05T01:49:37.762Z,60.80
2022-10-05T01:52:31.352Z,60.70
2022-10-05T01:55:25.074Z,60.50
2022-10-05T01:58:20.057Z,60.60
2022-10-05T02:01:09.928Z,60.80
2022-10-05T02:03:53.203Z,60.70
2022-10-05T02:06:26.786Z,60.70
2022-10-05T02:09:09.664Z,60.60
2022-10-05T02:11:39.231Z,60.60
2022-10-05T02:14:15.216Z,60.80
2022-10-05T02:16:44.799Z,60.80
2022-10-05T02:19:35.056Z,60.90
2022-10-05T02:22:17.892Z,60.80
2022-10-05T02:24:56.194Z,60.80
2022-10-05T02:27:29.805Z,60.90
2022-10-05T02:30:02.282Z,61.00
2022-10-05T02:32:43.046Z,61.20
2022-10-05T02:35:16.116Z,60.70
2022-10-05T02:37:58.784Z,61.90
2022-10-05T02:40:41.227Z,60.80
2022-10-05T02:43:41.831Z,61.20
2022-10-05T02:46:25.988Z,60.70
2022-10-05T02:49:17.142Z,61.20
2022-10-05T02:51:54.331Z,61.00
2022-10-05T02:54:31.153Z,61.10
2022-10-05T02:57:03.634Z,61.30
2022-10-05T02:59:38.816Z,61.10
2022-10-05T03:02:40.293Z,61.10
2022-10-05T03:05:46.118Z,60.80
2022-10-05T03:08:20.698Z,60.70
2022-10-05T03:11:25.419Z,60.80
2022-10-05T03:14:06.154Z,60.70
2022-10-05T03:16:47.475Z,60.90
2022-10-05T03:19:47.464Z,60.70
2022-10-05T03:22:19.979Z,60.80
2022-10-05T03:24:46.835Z,60.80
2022-10-05T03:27:20.651Z,61.00
2022-10-05T03:30:06.330Z,61.10
2022-10-05T03:32:50.999Z,60.50
2022-10-05T03:35:32.980Z,60.80
2022-10-05T03:38:22.497Z,61.00
2022-10-05T03:41:06.438Z,60.50
2022-10-05T03:44:10.859Z,60.50
2022-10-05T03:46:38.955Z,60.60
2022-10-05T03:49:33.743Z,60.80
2022-10-05T03:52:22.954Z,60.80
2022-10-05T03:55:26.274Z,60.40
2022-10-05T03:57:59.774Z,60.60
2022-10-05T04:00:30.136Z,60.60
2022-10-05T04:03:09.616Z,60.50
2022-10-05T04:05:48.723Z,59.70
2022-10-05T04:08:46.803Z,61.10
2022-10-05T04:11:55.549Z,60.90
2022-10-05T04:14:28.063Z,60.80
2022-10-05T04:16:59.876Z,60.60
2022-10-05T04:19:39.359Z,60.00
2022-10-05T04:22:39.222Z,60.40
2022-10-05T04:25:22.738Z,59.90
2022-10-05T04:28:32.035Z,60.10
2022-10-05T04:31:02.737Z,60.10
2022-10-05T04:33:31.533Z,60.20
2022-10-05T04:36:19.186Z,60.10
2022-10-05T04:38:57.693Z,59.90
2022-10-05T04:41:40.441Z,60.60
2022-10-05T04:44:41.301Z,60.10
2022-10-05T04:47:39.544Z,59.90
2022-10-05T04:50:12.870Z,59.80
2022-10-05T04:53:16.549Z,59.70
2022-10-05T04:56:03.524Z,59.60
2022-10-05T04:58:59.484Z,59.80
2022-10-05T05:02:13.816Z,59.70
2022-10-05T05:05:15.285Z,59.80
2022-10-05T05:08:00.650Z,59.90
2022-10-05T05:11:04.742Z,60.00
2022-10-05T05:13:58.702Z,60.10
2022-10-05T05:16:31.001Z,60.50
2022-10-05T05:19:23.504Z,60.10
2022-10-05T05:22:30.015Z,59.70
2022-10-05T05:24:56.788Z,60.10
2022-10-05T05:27:38.678Z,60.00
2022-10-05T05:30:33.931Z,60.00
2022-10-05T05:33:20.495Z,60.00
2022-10-05T05:35:58.881Z,59.90
2022-10-05T05:38:37.777Z,60.10
2022-10-05T05:41:10.761Z,60.20
2022-10-05T05:43:58.924Z,60.70
2022-10-05T05:47:02.496Z,59.50
2022-10-05T05:49:51.764Z,60.40
2022-10-05T05:52:26.064Z,59.60
2022-10-05T05:55:08.411Z,59.90
2022-10-05T05:57:43.184Z,59.80
2022-10-05T06:00:14.084Z,60.10
2022-10-05T06:03:13.320Z,60.20
2022-10-05T06:05:47.567Z,59.70
2022-10-05T06:08:36.052Z,60.00
2022-10-05T06:11:30.569Z,60.20
2022-10-05T06:14:13.760Z,60.00
2022-10-05T06:16:48.285Z,59.70
2022-10-05T06:19:21.298Z,60.20
2022-10-05T06:21:54.537Z,60.40
2022-10-05T06:24:40.602Z,59.80
2022-10-05T06:27:17.747Z,60.00
2022-10-05T06:29:48.391Z,59.80
2022-10-05T06:32:32.341Z,60.20
2022-10-05T06:35:41.355Z,59.90
2022-10-05T06:38:23.507Z,60.00
2022-10-05T06:41:15.560Z,60.50
2022-10-05T06:43:46.408Z,60.00
2022-10-05T06:46:32.126Z,59.90
2022-10-05T06:49:56.121Z,59.80
2022-10-05T06:53:29.310Z,59.50
2022-10-05T06:56:11.516Z,60.00
2022-10-05T06:58:45.690Z,60.20
2022-10-05T07:01:36.403Z,60.10
2022-10-05T07:04:36.643Z,59.80
2022-10-05T07:07:15.065Z,59.70
2022-10-05T07:10:22.399Z,60.30
2022-10-05T07:13:27.189Z,60.70
2022-10-05T07:16:13.551Z,60.20
2022-10-05T07:19:13.799Z,60.40
2022-10-05T07:22:00.181Z,60.80
2022-10-05T07:24:38.143Z,60.60
2022-10-05T07:27:17.998Z,60.40
2022-10-05T07:30:02.924Z,60.90
2022-10-05T07:32:59.746Z,61.20
2022-10-05T07:35:59.083Z,60.70
2022-10-05T07:38:43.077Z,60.60
2022-10-05T07:41:13.553Z,60.80
2022-10-05T07:44:04.422Z,60.70
2022-10-05T07:46:53.416Z,60.70
2022-10-05T07:49:43.512Z,61.10
2022-10-05T07:52:24.776Z,60.70
2022-10-05T07:54:58.607Z,60.50
2022-10-05T07:57:36.945Z,60.70
2022-10-05T08:00:06.003Z,60.80
2022-10-05T08:02:54.424Z,60.90
2022-10-05T08:05:29.672Z,60.20
2022-10-05T08:08:27.288Z,60.90
2022-10-05T08:11:46.761Z,60.70
2022-10-05T08:14:22.280Z,60.60
2022-10-05T08:16:55.745Z,61.30
2022-10-05T08:19:31.935Z,61.20
2022-10-05T08:22:04.640Z,60.70
2022-10-05T08:24:51.793Z,60.90
2022-10-05T08:27:50.019Z,60.70
2022-10-05T08:30:17.368Z,60.70
2022-10-05T08:32:55.347Z,61.50
2022-10-05T08:35:35.730Z,61.10
2022-10-05T08:38:10.430Z,61.10
2022-10-05T08:40:43.108Z,60.80
2022-10-05T08:43:28.042Z,61.60
2022-10-05T08:46:28.294Z,61.40
2022-10-05T08:49:16.780Z,60.40
2022-10-05T08:51:56.723Z,60.90
2022-10-05T08:54:43.256Z,61.60
2022-10-05T08:57:19.131Z,61.20
2022-10-05T09:00:05.086Z,61.60
2022-10-05T09:03:09.531Z,61.00
2022-10-05T09:05:36.458Z,61.10
2022-10-05T09:08:33.900Z,61.60
2022-10-05T09:11:41.636Z,61.30
2022-10-05T09:14:39.015Z,61.30
2022-10-05T09:17:20.434Z,61.00
2022-10-05T09:20:18.880Z,61.10
2022-10-05T09:22:58.079Z,61.40
2022-10-05T09:25:58.754Z,61.40
2022-10-05T09:28:42.668Z,61.40
2022-10-05T09:31:15.540Z,61.90
2022-10-05T09:34:23.863Z,61.90
2022-10-05T09:37:38.683Z,61.70
2022-10-05T09:40:23.679Z,62.20
2022-10-05T09:43:30.853Z,62.00
2022-10-05T09:46:05.007Z,61.80
2022-10-05T09:48:47.823Z,61.80
2022-10-05T09:51:17.256Z,61.60
2022-10-05T09:54:05.025Z,61.90
2022-10-05T09:57:04.192Z,62.10
2022-10-05T10:00:21.746Z,61.70
2022-10-05T10:03:19.130Z,61.80
2022-10-05T10:05:48.605Z,61.70
2022-10-05T10:08:35.668Z,62.10
2022-10-05T10:11:16.947Z,62.20
2022-10-05T10:14:10.624Z,62.00
2022-10-05T10:16:46.126Z,62.00
2022-10-05T10:19:18.831Z,62.00
2022-10-05T10:22:12.918Z,62.00
2022-10-05T10:25:20.365Z,61.90
2022-10-05T10:28:16.029Z,61.70
2022-10-05T10:30:55.887Z,61.90
2022-10-05T10:33:38.679Z,61.80
2022-10-05T10:36:18.363Z,62.00
2022-10-05T10:39:22.637Z,62.00
2022-10-05T10:42:11.123Z,61.70
2022-10-05T10:45:25.835Z,61.70
2022-10-05T10:48:18.279Z,62.40
2022-10-05T10:51:12.387Z,61.90
2022-10-05T10:54:08.936Z,62.00
2022-10-05T10:56:44.475Z,61.80
2022-10-05T10:59:41.673Z,62.10
2022-10-05T11:02:46.491Z,61.70
2022-10-05T11:05:37.066Z,61.40
2022-10-05T11:08:09.339Z,61.70
2022-10-05T11:11:23.560Z,62.00
2022-10-05T11:14:05.942Z,61.80
2022-10-05T11:17:05.504Z,61.80
2022-10-05T11:20:09.248Z,61.80
2022-10-05T11:22:54.473Z,61.80
2022-10-05T11:25:27.748Z,61.80
2022-10-05T11:28:25.564Z,61.80
2022-10-05T11:31:01.775Z,61.80
2022-10-05T11:33:42.902Z,61.90
2022-10-05T11:36:34.323Z,61.90
2022-10-05T11:39:30.675Z,61.80
2022-10-05T11:42:06.482Z,61.80
2022-10-05T11:44:51.881Z,61.80
2022-10-05T11:47:27.942Z,61.60
2022-10-05T11:50:05.498Z,61.70
2022-10-05T11:53:26.148Z,61.60
2022-10-05T11:56:21.924Z,61.40
2022-10-05T11:59:23.356Z,61.80
2022-10-05T12:01:56.163Z,62.60
2022-10-05T12:04:57.390Z,62.00
2022-10-05T12:07:36.012Z,61.70
2022-10-05T12:10:31.217Z,61.80
2022-10-05T12:13:37.531Z,61.60
2022-10-05T12:16:23.005Z,61.60
2022-10-05T12:19:06.012Z,61.80
2022-10-05T12:21:45.067Z,61.40
2022-10-05T12:24:35.660Z,61.10
2022-10-05T12:27:05.628Z,61.30
2022-10-05T12:30:05.740Z,61.70
2022-10-05T12:33:01.891Z,61.40
2022-10-05T12:35:48.431Z,61.70
2022-10-05T12:38:28.673Z,61.40
2022-10-05T12:41:04.281Z,60.80
2022-10-05T12:43:46.136Z,61.40
2022-10-05T12:46:33.175Z,61.40
2022-10-05T12:49:12.058Z,61.50
2022-10-05T12:52:02.440Z,61.40
2022-10-05T12:54:56.079Z,61.80
2022-10-05T12:58:13.934Z,61.40
2022-10-05T13:00:51.936Z,61.40
2022-10-05T13:03:25.963Z,61.50
2022-10-05T13:06:15.744Z,61.30
2022-10-05T13:09:27.777Z,61.30
2022-10-05T13:12:03.789Z,61.30
2022-10-05T13:14:56.281Z,61.30
2022-10-05T13:17:35.054Z,60.90
2022-10-05T13:20:16.103Z,61.10
2022-10-05T13:22:48.464Z,60.60
2022-10-05T13:25:25.872Z,60.90
2022-10-05T13:28:02.439Z,60.90
2022-10-05T13:30:29.895Z,60.60
2022-10-05T13:33:25.101Z,60.60
2022-10-05T13:36:11.631Z,60.20
2022-10-05T13:39:03.746Z,60.50
2022-10-05T13:41:30.643Z,60.60
2022-10-05T13:44:16.360Z,60.60
2022-10-05T13:46:56.663Z,60.10
2022-10-05T13:49:48.251Z,61.10
2022-10-05T13:52:28.100Z,60.10
2022-10-05T13:55:15.784Z,60.50
2022-10-05T13:57:53.120Z,60.20
2022-10-05T14:00:24.146Z,60.00
2022-10-05T14:02:56.661Z,60.50
2022-10-05T14:05:24.690Z,60.80
2022-10-05T14:07:53.392Z,60.90
2022-10-05T14:10:40.235Z,60.70
2022-10-05T14:13:19.433Z,60.20
2022-10-05T14:16:04.832Z,60.80
2022-10-05T14:18:36.348Z,60.80
2022-10-05T14:21:07.679Z,60.80
2022-10-05T14:23:35.495Z,60.70
2022-10-05T14:26:04.452Z,60.90
2022-10-05T14:28:39.107Z,60.30
2022-10-05T14:31:26.856Z,60.10
2022-10-05T14:33:53.800Z,60.50
2022-10-05T14:36:40.208Z,60.30
2022-10-05T14:39:12.957Z,60.40
2022-10-05T14:41:48.919Z,60.80
2022-10-05T14:44:16.210Z,59.80
2022-10-05T14:47:11.859Z,60.00
2022-10-05T14:50:13.969Z,60.10
2022-10-05T14:52:43.476Z,60.50
2022-10-05T14:55:41.464Z,60.90
2022-10-05T14:58:27.436Z,60.30
2022-10-05T15:01:16.312Z,60.50
2022-10-05T15:04:02.513Z,59.60
2022-10-05T15:06:39.772Z,60.90
2022-10-05T15:09:29.729Z,61.20
2022-10-05T15:12:01.041Z,60.60
2022-10-05T15:14:32.172Z,61.00
2022-10-05T15:17:03.394Z,60.80
2022-10-05T15:19:40.785Z,60.50
2022-10-05T15:22:31.913Z,60.60
2022-10-05T15:25:22.238Z,60.00
2022-10-05T15:28:10.821Z,60.80
2022-10-05T15:30:42.982Z,60.30
2022-10-05T15:33:15.171Z,60.60
2022-10-05T15:36:09.795Z,61.00
2022-10-05T15:38:42.968Z,61.10
2022-10-05T15:41:12.866Z,60.90
2022-10-05T15:44:10.257Z,60.50
2022-10-05T15:46:58.525Z,60.50
2022-10-05T15:49:48.133Z,60.00
2022-10-05T15:52:31.899Z,60.20
2022-10-05T15:55:22.910Z,60.80
2022-10-05T15:57:55.851Z,60.50
2022-10-05T16:00:25.456Z,60.60
2022-10-05T16:03:07.120Z,60.80
2022-10-05T16:06:04.900Z,60.50
2022-10-05T16:08:55.798Z,60.60
2022-10-05T16:11:50.112Z,60.70
2022-10-05T16:14:32.372Z,60.80
2022-10-05T16:17:33.722Z,60.50
2022-10-05T16:20:41.165Z,60.10
2022-10-05T16:23:28.083Z,59.80
2022-10-05T16:26:25.608Z,60.80
2022-10-05T16:29:11.767Z,60.90
2022-10-05T16:32:00.333Z,61.00
2022-10-05T16:34:45.484Z,61.20
2022-10-05T16:37:42.999Z,61.00
2022-10-05T16:40:22.123Z,61.00
2022-10-05T16:43:04.160Z,61.20
2022-10-05T16:45:45.124Z,60.80
2022-10-05T16:48:28.838Z,61.20
2022-10-05T16:51:07.602Z,61.10
2022-10-05T16:53:40.300Z,61.30
2022-10-05T16:56:13.522Z,61.10
2022-10-05T16:58:43.454Z,60.90
2022-10-05T17:01:10.355Z,61.10
2022-10-05T17:04:03.589Z,61.20
2022-10-05T17:06:45.899Z,61.10
2022-10-05T17:09:41.900Z,61.30
2022-10-05T17:12:32.782Z,60.30
2022-10-05T17:15:29.904Z,61.80
2022-10-05T17:18:06.923Z,60.90
2022-10-05T17:20:47.179Z,61.40
2022-10-05T17:23:35.097Z,61.20
2022-10-05T17:26:07.295Z,60.90
2022-10-05T17:28:57.438Z,61.30
2022-10-05T17:31:28.079Z,61.20
2022-10-05T17:34:01.039Z,60.90
2022-10-05T17:36:44.027Z,61.10
2022-10-05T17:39:20.896Z,60.80
2022-10-05T17:41:48.786Z,61.40
2022-10-05T17:44:19.327Z,61.40
2022-10-05T17:46:57.040Z,61.20
2022-10-05T17:49:46.973Z,61.10
2022-10-05T17:52:45.643Z,61.10
2022-10-05T17:55:26.675Z,61.10
2022-10-05T17:57:58.623Z,61.00
2022-10-05T18:00:43.369Z,61.40
2022-10-05T18:03:43.820Z,61.40
2022-10-05T18:06:25.951Z,61.00
2022-10-05T18:09:20.321Z,61.50
2022-10-05T18:12:02.861Z,61.20
2022-10-05T18:15:12.905Z,61.40
2022-10-05T18:17:51.405Z,61.40
2022-10-05T18:20:23.997Z,61.70
2022-10-05T18:22:53.473Z,61.60
2022-10-05T18:25:34.082Z,61.70
2022-10-05T18:28:12.791Z,61.50
2022-10-05T18:30:54.581Z,61.50
2022-10-05T18:33:45.616Z,61.40
2022-10-05T18:36:18.208Z,61.50
2022-10-05T18:39:03.316Z,61.80
2022-10-05T18:41:50.839Z,61.80
2022-10-05T18:44:40.482Z,61.70
2022-10-05T18:47:42.883Z,61.80
2022-10-05T18:50:21.522Z,61.80
2022-10-05T18:53:13.358Z,61.80
2022-10-05T18:55:58.947Z,61.80
2022-10-05T18:58:51.057Z,62.00
2022-10-05T19:01:40.280Z,62.30
2022-10-05T19:04:37.637Z,62.20
2022-10-05T19:08:02.747Z,62.10
2022-10-05T19:10:50.824Z,62.00
2022-10-05T19:13:26.549Z,62.00
2022-10-05T19:16:14.467Z,62.10
2022-10-05T19:19:00.120Z,61.90
2022-10-05T19:21:30.312Z,62.00
2022-10-05T19:24:11.843Z,62.10
2022-10-05T19:26:49.863Z,62.20
2022-10-05T19:29:42.739Z,63.20
2022-10-05T19:32:49.431Z,62.30
2022-10-05T19:35:43.714Z,62.90
2022-10-05T19:38:42.108Z,62.10
2022-10-05T19:41:19.380Z,62.10
2022-10-05T19:44:13.434Z,62.20
2022-10-05T19:47:02.652Z,62.10
2022-10-05T19:49:37.835Z,61.90
2022-10-05T19:52:11.882Z,62.10
2022-10-05T19:54:39.132Z,62.10
2022-10-05T19:57:17.868Z,62.10
2022-10-05T19:59:46.898Z,62.00
2022-10-05T20:02:17.379Z,62.10
2022-10-05T20:04:49.646Z,62.00
2022-10-05T20:07:23.324Z,62.90
2022-10-05T20:10:14.423Z,62.10
2022-10-05T20:12:52.226Z,62.10
2022-10-05T20:15:43.502Z,62.20
2022-10-05T20:18:53.989Z,61.80
2022-10-05T20:21:46.368Z,62.00
2022-10-05T20:24:19.682Z,62.10
2022-10-05T20:27:16.500Z,62.80
2022-10-05T20:29:44.982Z,62.10
2022-10-05T20:32:17.950Z,62.30
2022-10-05T20:34:47.347Z,62.30
2022-10-05T20:37:16.651Z,62.10
2022-10-05T20:39:44.066Z,62.20
2022-10-05T20:42:11.827Z,62.20
2022-10-05T20:44:39.639Z,62.10
2022-10-05T20:47:09.727Z,62.30
2022-10-05T20:49:38.132Z,62.10
2022-10-05T20:52:06.348Z,63.10
2022-10-05T20:54:33.352Z,62.20
2022-10-05T20:57:00.944Z,62.30
2022-10-05T20:59:28.851Z,62.30
2022-10-05T21:01:55.783Z,62.50
2022-10-05T21:04:25.637Z,62.40
2022-10-05T21:06:53.073Z,62.00
2022-10-05T21:09:21.563Z,62.30
2022-10-05T21:11:50.249Z,62.40
2022-10-05T21:14:17.316Z,62.30
2022-10-05T21:16:45.875Z,62.10
2022-10-05T21:19:14.516Z,62.60
2022-10-05T21:21:43.633Z,62.70
2022-10-05T21:24:13.729Z,62.80
2022-10-05T21:26:41.778Z,62.80
2022-10-05T21:29:12.467Z,62.80
2022-10-05T21:31:40.491Z,62.50
2022-10-05T21:34:08.401Z,62.60
2022-10-05T21:36:35.523Z,62.50
2022-10-05T21:39:02.428Z,62.70
2022-10-05T21:41:29.282Z,62.90
2022-10-05T21:43:56.305Z,62.90
2022-10-05T21:46:27.489Z,62.90
2022-10-05T21:48:56.038Z,63.00
2022-10-05T21:51:25.112Z,62.80
2022-10-05T21:54:06.885Z,63.00
2022-10-05T21:56:37.481Z,63.00
2022-10-05T21:59:07.954Z,62.80
2022-10-05T22:01:36.026Z,62.80
2022-10-05T22:04:04.379Z,62.50
2022-10-05T22:06:31.544Z,62.80
2022-10-05T22:08:59.593Z,62.70
2022-10-05T22:11:27.977Z,62.50
2022-10-05T22:14:01.996Z,63.20
2022-10-05T22:16:32.179Z,62.30
2022-10-05T22:19:02.378Z,62.20
2022-10-05T22:21:30.224Z,61.90
2022-10-05T22:23:57.383Z,61.80
2022-10-05T22:26:24.748Z,61.90
2022-10-05T22:28:55.484Z,61.60
2022-10-05T22:31:22.579Z,61.40
2022-10-05T22:33:49.599Z,61.80
2022-10-05T22:36:16.705Z,61.40
2022-10-05T22:38:44.811Z,61.60
2022-10-05T22:41:13.265Z,61.10
2022-10-05T22:43:40.308Z,61.60
2022-10-05T22:46:11.425Z,61.20
2022-10-05T22:48:39.212Z,61.20
2022-10-05T22:51:06.560Z,61.70
2022-10-05T22:53:33.568Z,61.30
2022-10-05T22:56:09.074Z,61.00
2022-10-05T22:58:36.621Z,60.80
2022-10-05T23:01:06.069Z,61.10
2022-10-05T23:03:33.255Z,60.70
2022-10-05T23:06:03.620Z,61.30
2022-10-05T23:08:32.342Z,60.90
2022-10-05T23:11:04.642Z,60.70
2022-10-05T23:13:32.940Z,60.60
2022-10-05T23:16:09.931Z,60.30
2022-10-05T23:18:37.843Z,60.30
2022-10-05T23:21:08.631Z,60.40
2022-10-05T23:23:37.445Z,60.30
2022-10-05T23:26:05.178Z,59.80
2022-10-05T23:28:32.556Z,60.00
2022-10-05T23:31:01.306Z,59.60
2022-10-05T23:33:29.048Z,59.00
2022-10-05T23:36:04.470Z,59.30
2022-10-05T23:38:31.738Z,59.10
2022-10-05T23:40:59.759Z,59.10
2022-10-05T23:43:27.602Z,59.60
2022-10-05T23:45:55.433Z,58.90
2022-10-05T23:48:22.779Z,58.30
2022-10-05T23:50:50.282Z,58.70
2022-10-05T23:53:18.317Z,58.40
2022-10-05T23:55:45.731Z,58.40
2022-10-05T23:58:12.694Z,58.10
